Meteo Giornale » Osservazioni meteo Svizzera » Buochs

ore: 06:50 - Osservazioni Meteo Buochs
Lat. 46° 58' N Lon. 8° 23' E Alt. 450 metri s.l.m.

molto_nuvoloso Europe/Zurich

21 °C

Molto Nuvoloso

Temp. 24 Ore

0 °C

30 °C

Nord

5.5 Km/h

Dew point 15 °C

Umidità 68 %

Visibilità  10 Km

Il sole sorge alle ore 06:20

Il sole tramonta alle ore 20:42

Data e Ora Cielo e Fenomeni T °C DP °C Um. % Pres. hPa Vis. km Vento km/h
Oggi h: 06:50 molto_nuvoloso Molto Nuvoloso 21 15 68 1016 10 N 5.5
Oggi h: 06:20 molto_nuvoloso Molto Nuvoloso 20 15 72 1016 10 NE 7.4
Oggi h: 05:50 sereno Sereno 22 14 60 1016 10 N 5.5
Oggi h: 05:20 nuvoloso Nuvoloso 21 15 68 1015 10 SO 7.4
Oggi h: 04:50 nuvoloso Nuvoloso 21 15 68 1015 10 N 5.5
Oggi h: 04:20 sereno Sereno 22 15 64 1015 10 N 3.7
Oggi h: 03:50 molto_nuvoloso Molto Nuvoloso 22 15 64 1015 10 N 1.8
Oggi h: 03:20 molto_nuvoloso Molto Nuvoloso 24 15 57 1015 10 N 7.4
Oggi h: 02:50 molto_nuvoloso Molto Nuvoloso 21 17 77 1016 10 NE 7.4
Oggi h: 02:20 molto_nuvoloso Molto Nuvoloso 21 16 73 1017 10 O 7.4
Oggi h: 01:50 molto_nuvoloso Molto Nuvoloso 22 16 68 1017 10 N 5.5
Oggi h: 01:20 coperto_pioggia Pioggia Debole 22 17 73 1016 10 N 3.7
Oggi h: 00:50 molto_nuvoloso Molto Nuvoloso 21 17 77 1016 10 N 5.5
Oggi h: 00:20 sereno Sereno 0 0 93 0 0 N 0
Ieri h: 23:50 sereno Sereno 0 0 100 0 0 N 0
Ieri h: 23:20 sereno Sereno 0 0 100 0 0 N 0
Ieri h: 22:50 molto_nuvoloso Molto Nuvoloso 22 18 78 1018 10 N 7.4
Ieri h: 22:20 coperto_pioggia Pioggia Debole 21 18 82 1018 10 O 7.4
Ieri h: 21:50 nuvoloso_temporali Temporale nelle Vicinanze 22 16 68 1018 10 N 5.5
Ieri h: 21:20 nuvoloso_temporali Temporale nelle Vicinanze 23 17 68 1018 10 O 7.4
Ieri h: 20:50 nuvoloso_temporali Temporale nelle Vicinanze 23 17 68 1017 3 N 5.5
Ieri h: 20:20 molto_nuvoloso Molto Nuvoloso 24 17 64 1016 10 O 13
Ieri h: 19:50 nuvoloso Nuvoloso 22 18 78 1016 10 SO 9.3
Ieri h: 19:20 sereno Sereno 22 18 78 1016 10 N 1.8
Ieri h: 18:50 molto_nuvoloso Molto Nuvoloso 22 20 88 1017 10 N 3.7
Ieri h: 17:50 poco_nuvoloso Poco Nuvoloso 21 18 82 1016 10 NO 9.3
Ieri h: 17:20 nuvoloso_temporali Temporale con Pioggia Debole 21 17 77 1017 10 O 14.8
Ieri h: 16:50 nuvoloso_temporali Temporale con Pioggia 27 20 65 1016 10 O 20.3
Ieri h: 16:20 coperto_pioggia Pioggia Debole 28 20 61 1016 10 N 3.7
Ieri h: 15:50 nuvoloso Nuvoloso 29 19 54 1016 10 E/NE 7.4
Ieri h: 15:20 nuvoloso Nuvoloso 30 19 51 1016 10 N 1.8
Ieri h: 14:50 nuvoloso Nuvoloso 30 19 51 1016 10 N 3.7
Ieri h: 14:20 molto_nuvoloso Molto Nuvoloso 29 18 51 1016 10 N 1.8
Ieri h: 13:50 nuvoloso Nuvoloso 28 17 51 1016 10 N 3.7
Ieri h: 13:20 nuvoloso Nuvoloso 28 18 54 1017 10 N 3.7
Ieri h: 12:50 sereno Sereno 27 17 54 1017 10 E/NE 7.4
Ieri h: 12:20 sereno Sereno 26 17 57 1017 10 NE 7.4
Ieri h: 11:50 sereno Sereno 26 17 57 1017 10 E/NE 7.4
Ieri h: 11:20 sereno Sereno 25 17 61 1017 10 N 3.7
Ieri h: 10:50 poco_nuvoloso Poco Nuvoloso 25 16 57 1017 10 N 3.7
Ieri h: 10:20 sereno Sereno 24 17 64 1018 10 N 3.7
Ieri h: 09:50 sereno Sereno 24 17 64 1017 10 N 1.8
Ieri h: 09:20 sereno Sereno 22 16 68 1017 10 N 3.7
Ieri h: 08:50 sereno Sereno 21 16 73 1017 10 SO 7.4
Ieri h: 08:20 sereno Sereno 20 16 77 1017 10 N 5.5
Ieri h: 07:50 sereno Sereno 19 16 82 1017 10 N 5.5